Flight Track Log - Related Links

Times and Time Zones

All times are in EST time to prevent confusion due to time zone crossing. See the KAL824 flight status page for this flight to view local times or setup timezone preferences in your user account.

Time Position Orientation Groundspeed Altitude Reporting Facility
EST Latitude Longitude Course Direction KTS MPH feet Rate Location/Type
Sun 12:01:00 AM 44.2738 129.4453 199° South  Level Estimated
Sun 12:02:00 AM 44.2237 129.4207 199° South  Level Estimated
Sun 12:03:00 AM 44.1737 129.3961 199° South  Level Estimated
Sun 12:04:00 AM 44.1236 129.3716 199° South  Level Estimated
Sun 12:05:00 AM 44.0735 129.3471 199° South  Level Estimated
Sun 12:06:00 AM 44.0234 129.3227 199° South  Level Estimated
Sun 12:07:00 AM 43.9691 129.2962 199° South  Level Estimated
Sun 12:08:00 AM 43.9147 129.2698 199° South  Level Estimated
Sun 12:09:00 AM 43.8603 129.2434 199° South  Level Estimated
Sun 12:10:00 AM 43.8059 129.2171 199° South  Level Estimated
Sun 12:11:00 AM 43.7515 129.1908 199° South  Level Estimated
Sun 12:12:00 AM 43.6971 129.1645 199° South  Level Estimated
Sun 12:13:00 AM 43.6427 129.1384 199° South  Level Estimated
Sun 12:14:00 AM 43.5883 129.1122 199° South  Level Estimated
Sun 12:15:00 AM 43.5339 129.0861 199° South  Level Estimated
Sun 12:16:00 AM 43.4795 129.0601 199° South  Level Estimated
Sun 12:17:00 AM 43.4251 129.0341 199° South  Level Estimated
Sun 12:18:00 AM 43.3706 129.0081 199° South  Level Estimated
Sun 12:19:00 AM 43.3162 128.9822 199° South  Level Estimated
Sun 12:20:00 AM 43.2617 128.9563 199° South  Level Estimated
Sun 12:21:00 AM 43.2073 128.9305 199° South  Level Estimated
Sun 12:22:00 AM 43.1528 128.9048 199° South  Level Estimated
Sun 12:23:00 AM 43.0984 128.8790 199° South  Level Estimated
Sun 12:24:00 AM 43.0439 128.8533 199° South  Level Estimated
Sun 12:25:00 AM 42.9894 128.8277 199° South  Level Estimated
Sun 12:26:00 AM 42.9350 128.8021 199° South  Level Estimated
Sun 12:27:00 AM 42.8805 128.7766 199° South  Level Estimated
Sun 12:28:00 AM 42.8260 128.7511 199° South  Level Estimated
Sun 12:29:00 AM 42.7715 128.7256 199° South  Level Estimated
Sun 12:30:00 AM 42.7170 128.7002 199° South  Level Estimated
Sun 12:31:00 AM 42.6625 128.6749 199° South  Level Estimated
Sun 12:32:00 AM 42.6080 128.6496 199° South  Level Estimated
Sun 12:33:00 AM 42.5535 128.6243 199° South  Level Estimated
Sun 12:34:00 AM 42.4989 128.5990 199° South  Level Estimated
Sun 12:35:00 AM 42.4444 128.5739 199° South  Level Estimated
Sun 12:36:00 AM 42.3899 128.5487 199° South  Level Estimated
Sun 12:37:00 AM 42.3353 128.5236 199° South  Level Estimated
Sun 12:38:00 AM 42.2808 128.4986 199° South  Level Estimated
Sun 12:39:00 AM 42.2262 128.4736 199° South  Level Estimated
Sun 12:40:00 AM 42.1717 128.4486 199° South  Level Estimated
Sun 12:41:00 AM 42.1171 128.4237 199° South  Level Estimated
Sun 12:42:00 AM 42.0625 128.3988 199° South  Level Estimated
Sun 12:43:00 AM 42.0080 128.3739 199° South  Level Estimated
Sun 12:44:00 AM 41.9534 128.3492 199° South  Level Estimated
Sun 12:45:00 AM 41.8988 128.3244 199° South  Level Estimated
Sun 12:46:00 AM 41.8442 128.2997 199° South  Level Estimated
Sun 12:47:00 AM 41.7896 128.2750 199° South  Level Estimated
Sun 12:48:00 AM 41.7350 128.2504 199° South  Level Estimated
Sun 12:49:00 AM 41.6804 128.2258 199° South  Level Estimated
Sun 12:50:00 AM 41.6258 128.2013 199° South  Level Estimated
Sun 12:51:00 AM 41.5712 128.1768 199° South  Level Estimated
Sun 12:52:00 AM 41.5166 128.1523 199° South  Level Estimated
Sun 12:53:00 AM 41.4620 128.1279 199° South  Level Estimated
Sun 12:54:00 AM 41.4073 128.1035 199° South  Level Estimated
Sun 12:55:00 AM 41.3527 128.0792 198° South  Level Estimated
Sun 12:56:00 AM 41.2980 128.0549 198° South  Level Estimated
Sun 12:57:00 AM 41.2434 128.0306 198° South  Level Estimated
Sun 12:58:00 AM 41.1888 128.0064 198° South  Level Estimated
Sun 12:59:00 AM 41.1341 127.9822 198° South  Level Estimated
Sun 01:00:00 AM 41.0794 127.9581 198° South  Level Estimated
Sun 01:01:00 AM 41.0248 127.9340 198° South  Level Estimated
Sun 01:02:00 AM 40.9701 127.9099 198° South  Level Estimated
Sun 01:03:00 AM 40.9154 127.8859 198° South  Level Estimated
Sun 01:04:00 AM 40.8607 127.8619 198° South  Level Estimated
Sun 01:05:00 AM 40.8060 127.8380 198° South  Level Estimated
Sun 01:06:00 AM 40.7514 127.8141 198° South  Level Estimated
Sun 01:07:00 AM 40.6967 127.7902 198° South  Level Estimated
Sun 01:08:00 AM 40.6419 127.7664 198° South  Level Estimated
Sun 01:09:00 AM 40.5872 127.7426 198° South  Level Estimated
Sun 01:10:00 AM 40.5325 127.7189 198° South  Level Estimated
Sun 01:11:00 AM 40.4778 127.6952 198° South  Level Estimated
Sun 01:12:00 AM 40.4231 127.6715 198° South  Level Estimated
Sun 01:13:00 AM 40.3684 127.6479 198° South  Level Estimated
Sun 01:14:00 AM 40.3136 127.6243 198° South  Level Estimated
Sun 01:15:00 AM 40.2589 127.6007 198° South  Level Estimated
Sun 01:16:00 AM 40.2042 127.5772 198° South  Level Estimated
Sun 01:17:00 AM 40.1494 127.5538 198° South  Level Estimated
Sun 01:18:00 AM 40.0947 127.5303 198° South  Level Estimated
Sun 01:19:00 AM 40.0399 127.5069 198° South  Level Estimated
Sun 01:20:00 AM 39.9852 127.4836 198° South  Level Estimated
Sun 01:21:00 AM 39.9304 127.4603 198° South  Level Estimated
Sun 01:22:00 AM 39.8756 127.4370 198° South  Level Estimated
Sun 01:23:00 AM 39.8209 127.4137 198° South  Level Estimated
Sun 01:24:00 AM 39.7661 127.3905 198° South  Level Estimated
Sun 01:25:00 AM 39.7113 127.3673 198° South  Level Estimated
Sun 01:26:00 AM 39.6565 127.3442 198° South  Level Estimated
Sun 01:27:00 AM 39.6017 127.3211 198° South  Level Estimated
Sun 01:28:00 AM 39.5469 127.2980 198° South  Level Estimated
Sun 01:29:00 AM 39.4921 127.2750 198° South  Level Estimated
Sun 01:30:00 AM 39.4373 127.2520 198° South  Level Estimated
Sun 01:31:00 AM 39.3825 127.2291 198° South  Level Estimated
Sun 01:32:00 AM 39.3277 127.2061 198° South  Level Estimated
Sun 01:33:00 AM 39.2729 127.1833 198° South  Level Estimated
Sun 01:34:00 AM 39.2181 127.1604 198° South  Level Estimated
Sun 01:35:00 AM 39.1632 127.1376 198° South  Level Estimated
Sun 01:36:00 AM 39.1084 127.1148 198° South  Level Estimated
Sun 01:37:00 AM 39.0536 127.0921 198° South  Level Estimated
Sun 01:38:00 AM 38.9987 127.0694 198° South  Level Estimated
Sun 01:39:00 AM 38.9439 127.0467 198° South  Level Estimated
Sun 01:40:00 AM 38.8890 127.0241 198° South  Level Estimated
Sun 01:41:00 AM 38.8342 127.0015 198° South  Level Estimated
Sun 01:42:00 AM 38.7793 126.9789 198° South  Level Estimated
Sun 01:43:00 AM 38.7245 126.9564 198° South  Level Estimated
Sun 01:44:00 AM 38.6696 126.9339 198° South  Level Estimated
Sun 01:45:00 AM 38.6147 126.9114 198° South  Level Estimated
Sun 01:46:00 AM 38.5599 126.8890 198° South  Level Estimated
Sun 01:47:00 AM 38.5050 126.8666 198° South  Level Estimated
Sun 01:48:00 AM 38.4501 126.8443 198° South  Level Estimated
Sun 01:49:00 AM 38.3952 126.8219 198° South  Level Estimated
Sun 01:50:00 AM 38.3403 126.7997 198° South  Level Estimated
Sun 01:51:00 AM 38.2854 126.7774 198° South  Level Estimated
Sun 01:52:00 AM 38.2305 126.7552 198° South  Level Estimated
Sun 01:53:00 AM 38.1756 126.7330 198° South  Level Estimated
Sun 01:54:00 AM 38.1207 126.7108 198° South  Level Estimated
Sun 01:55:00 AM 38.0658 126.6887 198° South  Level Estimated
Sun 01:56:00 AM 38.0109 126.6666 198° South  Level Estimated
Sun 01:57:00 AM 37.9560 126.6445 198° South  Level Estimated
Sun 01:58:00 AM 37.9010 126.6225 198° South  Level Estimated
Sun 01:59:00 AM 37.8461 126.6005 198° South  Level Estimated
Sun 02:00:00 AM 37.7912 126.5786 198° South  Level Estimated
Sun 02:01:00 AM 37.7362 126.5567 198° South  Level Estimated
Sun 02:02:00 AM 37.6813 126.5348 198° South  Level Estimated
Sun 02:03:00 AM 37.6264 126.5129 197° South  Level Estimated
Sun 02:04:00 AM 37.5714 126.4911 197° South  Level Estimated
Sun 02:05:00 AM 37.5165 126.4693 197° South  Level Estimated
Sun 02:06:00 AM 37.4691 126.4505 197° South  Level Estimated
Sun 02:07:00 AM 37.4691 126.4505 335° Northwest  Level Estimated
Sun 02:08:00 AM 37.4691 126.4505 335° Northwest  Level Estimated

Login

Don't have an account? Register now (free) for customized features, flight alerts, and more!